Staveley, United Kingdom
Current Conditions -  °F | °C
As of 9:50 AM on Monday 22 Dec 2014 (Local Time) from EGCN Reporting Station
Broken Clouds Broken Clouds  
Wind Chill: 57°   Ceiling: 2900
Heat Index: 57°   Visibility: 6mi
Dew Point: 48°   Wind: 21mph
Humidity: 72%   Direction: 230°SW
Pressure: 29.83"   Gusts: 35mph
Location:  53.26°N, 1.37°W
Report Text: EGCN 220950Z 23018G30KT 9999 SCT023 BKN029 14/09 Q1010
Loading
Personal Weather Stations






























Interactive Weather Map New forecast layout! Learn more

10-Day Weather Forecast

Advertisements
Track Severe Weather on mobile